Pagina principale
METAR-TAF:

METAR-TAF

Aeroporti :

Villacoublay, Francia

latitudine: 48-46N, longitudine: 002-12E, altezza: 177 m

Osservazione

Il bollettino è stato emesso 42 minuti fa, alle 22:30 UTC
Vento 3 kt da nord-est
Temperature 16°C
Umidità 48%
Pressione 1021 hPa
Visibilità 10 km o più
nessuna nube inferiore a 1500 m e nessun cumulonembo

METAR: LFPV 292230Z AUTO 04003KT CAVOK 16/05 Q1021 NOSIG

Ora: 01:12 (23:12 UTC)

Previsione

Il bollettino è stato emesso 3 ore e 12 minuti fa, alle 20:00 UTC
Previsione valida dal 29 alle 21 UTC al 30 alle 21 UTC
Vento 8 kt da est/nord-est
Visibilità 10 km o più
nessuna nube inferiore a 1500 m e nessun cumulonembo
Temporaneamente
dal 30 alle 12 UTC al 30 alle 15 UTC
Vento 10 kt da est con raffiche fino a 20 kt

TAF: LFPV 292000Z 2921/3021 07008KT CAVOK TEMPO 3012/3015 09010G20KT

Osservazioni e previsioni meteorologiche di più di 4000 aeroporti (messaggi METAR e TAF).

Le stazioni disponibili sono rappresentate dai dischi gialli e rossi sulla carta.

Puntare il mouse per vedere il nome della stazione.

Clicca sopra per visualizzare le osservazioni e previsioni meteorologiche.

Per cambiare la mappa : fare clic sui pulsanti verdi con una croce nera per ingrandire, il pulsante verde con un trattino per diminuire, o sulla freccia verde per le mappe adiacenti.


METAR-TAF: